sensor_id;sensor_type;location;lat;lon;timestamp;pressure;altitude;pressure_sealevel;temperature;humidity
77147;BME280;66121;52.584;9.694;2023-07-13T00:00:52;100967.47;;;16.57;89.15
77147;BME280;66121;52.584;9.694;2023-07-13T00:03:17;100960.66;;;16.61;87.50
77147;BME280;66121;52.584;9.694;2023-07-13T00:05:43;100959.81;;;16.64;88.56
77147;BME280;66121;52.584;9.694;2023-07-13T00:08:08;100967.28;;;16.71;88.50
77147;BME280;66121;52.584;9.694;2023-07-13T00:10:34;100963.31;;;16.72;88.54
77147;BME280;66121;52.584;9.694;2023-07-13T00:12:59;100974.09;;;16.70;88.36
77147;BME280;66121;52.584;9.694;2023-07-13T00:15:26;100972.47;;;16.72;87.75
77147;BME280;66121;52.584;9.694;2023-07-13T00:17:52;100964.56;;;16.67;87.16
77147;BME280;66121;52.584;9.694;2023-07-13T00:20:19;100969.63;;;16.76;87.97
77147;BME280;66121;52.584;9.694;2023-07-13T00:22:47;100966.59;;;16.94;87.48
77147;BME280;66121;52.584;9.694;2023-07-13T00:25:12;100969.81;;;16.92;87.24
77147;BME280;66121;52.584;9.694;2023-07-13T00:27:38;100969.38;;;16.94;87.99
77147;BME280;66121;52.584;9.694;2023-07-13T00:30:03;100986.47;;;16.96;87.43
77147;BME280;66121;52.584;9.694;2023-07-13T00:32:29;100977.97;;;17.06;86.31
77147;BME280;66121;52.584;9.694;2023-07-13T00:34:54;100979.59;;;17.04;86.15
77147;BME280;66121;52.584;9.694;2023-07-13T00:37:20;100976.00;;;17.03;85.60
77147;BME280;66121;52.584;9.694;2023-07-13T00:39:45;100986.78;;;17.01;85.66
77147;BME280;66121;52.584;9.694;2023-07-13T00:42:11;100989.22;;;16.99;85.11
77147;BME280;66121;52.584;9.694;2023-07-13T00:44:36;100989.25;;;16.96;85.88
77147;BME280;66121;52.584;9.694;2023-07-13T00:47:01;100972.41;;;16.76;85.34
77147;BME280;66121;52.584;9.694;2023-07-13T00:49:29;100983.75;;;16.92;85.81
77147;BME280;66121;52.584;9.694;2023-07-13T00:52:03;100988.28;;;16.79;85.65
77147;BME280;66121;52.584;9.694;2023-07-13T00:54:32;100988.84;;;16.67;86.73
77147;BME280;66121;52.584;9.694;2023-07-13T00:57:05;100977.34;;;16.65;86.58
77147;BME280;66121;52.584;9.694;2023-07-13T00:59:31;100982.97;;;16.58;86.68
77147;BME280;66121;52.584;9.694;2023-07-13T01:01:58;100994.09;;;16.61;86.33
77147;BME280;66121;52.584;9.694;2023-07-13T01:04:26;100982.97;;;16.58;86.46
77147;BME280;66121;52.584;9.694;2023-07-13T01:06:52;100987.34;;;16.59;86.05
77147;BME280;66121;52.584;9.694;2023-07-13T01:09:19;100984.09;;;16.64;86.47
77147;BME280;66121;52.584;9.694;2023-07-13T01:11:45;100975.50;;;16.48;86.25
77147;BME280;66121;52.584;9.694;2023-07-13T01:14:10;100980.91;;;16.65;85.62
77147;BME280;66121;52.584;9.694;2023-07-13T01:16:37;100988.75;;;16.74;85.53
77147;BME280;66121;52.584;9.694;2023-07-13T01:19:11;100972.16;;;16.63;85.08
77147;BME280;66121;52.584;9.694;2023-07-13T01:21:38;100969.84;;;16.58;85.04
77147;BME280;66121;52.584;9.694;2023-07-13T01:24:08;100965.53;;;16.50;85.24
77147;BME280;66121;52.584;9.694;2023-07-13T01:26:33;100975.00;;;16.60;85.57
77147;BME280;66121;52.584;9.694;2023-07-13T01:28:59;100967.50;;;16.53;85.55
77147;BME280;66121;52.584;9.694;2023-07-13T01:31:24;100971.91;;;16.51;85.01
77147;BME280;66121;52.584;9.694;2023-07-13T01:33:49;100973.50;;;16.48;84.91
77147;BME280;66121;52.584;9.694;2023-07-13T01:36:14;100978.00;;;16.39;86.21
77147;BME280;66121;52.584;9.694;2023-07-13T01:38:40;100976.56;;;16.27;86.42
77147;BME280;66121;52.584;9.694;2023-07-13T01:41:06;100971.09;;;16.17;87.23
77147;BME280;66121;52.584;9.694;2023-07-13T01:43:32;100970.38;;;16.13;86.85
77147;BME280;66121;52.584;9.694;2023-07-13T01:45:57;100964.25;;;16.25;87.02
77147;BME280;66121;52.584;9.694;2023-07-13T01:48:23;100961.16;;;16.16;86.72
77147;BME280;66121;52.584;9.694;2023-07-13T01:50:48;100972.69;;;16.18;87.26
77147;BME280;66121;52.584;9.694;2023-07-13T01:53:13;100974.31;;;16.15;87.31
77147;BME280;66121;52.584;9.694;2023-07-13T01:55:39;100979.44;;;16.17;87.44
77147;BME280;66121;52.584;9.694;2023-07-13T01:58:05;100975.50;;;16.14;87.69
77147;BME280;66121;52.584;9.694;2023-07-13T02:00:31;100977.59;;;16.03;87.55
77147;BME280;66121;52.584;9.694;2023-07-13T02:02:56;100979.47;;;16.13;87.09
77147;BME280;66121;52.584;9.694;2023-07-13T02:05:22;100968.47;;;16.02;88.44
77147;BME280;66121;52.584;9.694;2023-07-13T02:07:48;100978.91;;;15.91;89.14
77147;BME280;66121;52.584;9.694;2023-07-13T02:10:14;100990.91;;;15.85;89.10
77147;BME280;66121;52.584;9.694;2023-07-13T02:12:40;100979.00;;;15.81;89.51
77147;BME280;66121;52.584;9.694;2023-07-13T02:15:06;100987.84;;;15.69;90.17
77147;BME280;66121;52.584;9.694;2023-07-13T02:17:31;100985.88;;;15.66;90.89
77147;BME280;66121;52.584;9.694;2023-07-13T02:19:57;100996.13;;;15.76;90.53
77147;BME280;66121;52.584;9.694;2023-07-13T02:22:22;100995.53;;;15.54;91.40
77147;BME280;66121;52.584;9.694;2023-07-13T02:24:48;100987.97;;;15.55;91.72
77147;BME280;66121;52.584;9.694;2023-07-13T02:27:14;100995.84;;;15.63;91.24
77147;BME280;66121;52.584;9.694;2023-07-13T02:29:39;100996.25;;;15.65;91.62
77147;BME280;66121;52.584;9.694;2023-07-13T02:32:05;100995.91;;;15.60;91.48
77147;BME280;66121;52.584;9.694;2023-07-13T02:34:30;100994.59;;;15.71;90.98
77147;BME280;66121;52.584;9.694;2023-07-13T02:36:56;100998.91;;;15.79;90.07
77147;BME280;66121;52.584;9.694;2023-07-13T02:39:21;100986.53;;;15.84;89.94
77147;BME280;66121;52.584;9.694;2023-07-13T02:41:46;100990.19;;;15.77;89.85
77147;BME280;66121;52.584;9.694;2023-07-13T02:44:13;100992.53;;;15.79;90.02
77147;BME280;66121;52.584;9.694;2023-07-13T02:46:39;100976.72;;;15.69;89.57
77147;BME280;66121;52.584;9.694;2023-07-13T02:49:05;100988.28;;;15.67;88.82
77147;BME280;66121;52.584;9.694;2023-07-13T02:51:30;100984.34;;;15.61;88.54
77147;BME280;66121;52.584;9.694;2023-07-13T02:53:58;100993.47;;;15.65;88.58
77147;BME280;66121;52.584;9.694;2023-07-13T02:56:25;101004.94;;;15.71;88.46
77147;BME280;66121;52.584;9.694;2023-07-13T02:58:51;101003.03;;;15.61;88.18
77147;BME280;66121;52.584;9.694;2023-07-13T03:01:16;101001.84;;;15.62;87.80
77147;BME280;66121;52.584;9.694;2023-07-13T03:03:46;100993.50;;;15.62;86.92
77147;BME280;66121;52.584;9.694;2023-07-13T03:06:12;101004.19;;;15.67;87.11
77147;BME280;66121;52.584;9.694;2023-07-13T03:08:38;100989.84;;;15.68;86.11
77147;BME280;66121;52.584;9.694;2023-07-13T03:11:06;100992.91;;;15.81;85.11
77147;BME280;66121;52.584;9.694;2023-07-13T03:13:33;101009.56;;;15.88;85.78
77147;BME280;66121;52.584;9.694;2023-07-13T03:15:58;100992.44;;;15.89;85.53
77147;BME280;66121;52.584;9.694;2023-07-13T03:18:27;101001.16;;;15.95;84.59
77147;BME280;66121;52.584;9.694;2023-07-13T03:20:52;100993.31;;;15.83;85.02
77147;BME280;66121;52.584;9.694;2023-07-13T03:23:18;101009.53;;;15.91;84.93
77147;BME280;66121;52.584;9.694;2023-07-13T03:25:44;101002.84;;;15.82;84.90
77147;BME280;66121;52.584;9.694;2023-07-13T03:28:11;101000.34;;;15.94;84.90
77147;BME280;66121;52.584;9.694;2023-07-13T03:30:36;101015.03;;;15.98;84.15
77147;BME280;66121;52.584;9.694;2023-07-13T03:33:02;101006.34;;;15.93;84.08
77147;BME280;66121;52.584;9.694;2023-07-13T03:35:27;101013.84;;;15.96;84.11
77147;BME280;66121;52.584;9.694;2023-07-13T03:37:52;101006.38;;;15.89;84.33
77147;BME280;66121;52.584;9.694;2023-07-13T03:40:18;101011.50;;;15.94;84.84
77147;BME280;66121;52.584;9.694;2023-07-13T03:42:43;101015.81;;;15.99;84.65
77147;BME280;66121;52.584;9.694;2023-07-13T03:45:08;101016.25;;;15.97;84.75
77147;BME280;66121;52.584;9.694;2023-07-13T03:47:34;100996.88;;;15.83;84.58
77147;BME280;66121;52.584;9.694;2023-07-13T03:49:59;101018.63;;;15.95;84.74
77147;BME280;66121;52.584;9.694;2023-07-13T03:52:24;101025.72;;;16.03;83.50
77147;BME280;66121;52.584;9.694;2023-07-13T03:54:50;101016.97;;;16.05;84.20
77147;BME280;66121;52.584;9.694;2023-07-13T03:57:15;101011.69;;;16.14;83.86
77147;BME280;66121;52.584;9.694;2023-07-13T03:59:40;101009.72;;;16.15;83.60
77147;BME280;66121;52.584;9.694;2023-07-13T04:02:05;101020.75;;;16.25;83.63
77147;BME280;66121;52.584;9.694;2023-07-13T04:04:31;100999.38;;;16.15;83.52
77147;BME280;66121;52.584;9.694;2023-07-13T04:06:59;101009.66;;;16.18;83.73
77147;BME280;66121;52.584;9.694;2023-07-13T04:09:25;101009.34;;;16.13;83.27
77147;BME280;66121;52.584;9.694;2023-07-13T04:11:50;101019.63;;;16.16;83.20
77147;BME280;66121;52.584;9.694;2023-07-13T04:14:16;101021.59;;;16.19;82.48
77147;BME280;66121;52.584;9.694;2023-07-13T04:16:42;101021.50;;;16.26;82.83
77147;BME280;66121;52.584;9.694;2023-07-13T04:19:08;101017.50;;;16.30;83.04
77147;BME280;66121;52.584;9.694;2023-07-13T04:21:35;101025.47;;;16.28;83.13
77147;BME280;66121;52.584;9.694;2023-07-13T04:24:01;101026.91;;;16.43;81.92
77147;BME280;66121;52.584;9.694;2023-07-13T04:26:28;101031.97;;;16.55;82.11
77147;BME280;66121;52.584;9.694;2023-07-13T04:28:53;101027.50;;;16.65;81.77
77147;BME280;66121;52.584;9.694;2023-07-13T04:31:18;101021.00;;;16.75;80.87
77147;BME280;66121;52.584;9.694;2023-07-13T04:33:44;101004.69;;;16.73;80.17
77147;BME280;66121;52.584;9.694;2023-07-13T04:36:10;101024.03;;;16.88;79.71
77147;BME280;66121;52.584;9.694;2023-07-13T04:38:35;101004.47;;;16.91;79.46
77147;BME280;66121;52.584;9.694;2023-07-13T04:41:07;101016.41;;;17.18;78.91
77147;BME280;66121;52.584;9.694;2023-07-13T04:43:33;101013.00;;;17.34;78.48
77147;BME280;66121;52.584;9.694;2023-07-13T04:46:11;101026.25;;;17.57;77.69
77147;BME280;66121;52.584;9.694;2023-07-13T04:48:36;101028.41;;;17.72;76.89
77147;BME280;66121;52.584;9.694;2023-07-13T04:51:02;101038.44;;;17.66;77.09
77147;BME280;66121;52.584;9.694;2023-07-13T04:53:28;101021.34;;;17.64;75.94
77147;BME280;66121;52.584;9.694;2023-07-13T04:55:54;101025.59;;;17.72;75.95
77147;BME280;66121;52.584;9.694;2023-07-13T04:58:20;101025.47;;;18.02;75.86
77147;BME280;66121;52.584;9.694;2023-07-13T05:00:46;101031.78;;;18.07;74.17
77147;BME280;66121;52.584;9.694;2023-07-13T05:03:12;101031.06;;;18.02;74.48
77147;BME280;66121;52.584;9.694;2023-07-13T05:05:37;101028.78;;;18.40;73.93
77147;BME280;66121;52.584;9.694;2023-07-13T05:08:02;101030.84;;;18.36;74.48
77147;BME280;66121;52.584;9.694;2023-07-13T05:10:28;101039.16;;;18.40;74.09
77147;BME280;66121;52.584;9.694;2023-07-13T05:12:53;101027.66;;;18.57;73.60
77147;BME280;66121;52.584;9.694;2023-07-13T05:15:21;101041.38;;;18.72;73.37
77147;BME280;66121;52.584;9.694;2023-07-13T05:17:47;101041.59;;;18.61;73.32
77147;BME280;66121;52.584;9.694;2023-07-13T05:20:13;101052.25;;;18.46;72.63
77147;BME280;66121;52.584;9.694;2023-07-13T05:22:38;101047.69;;;18.76;72.94
77147;BME280;66121;52.584;9.694;2023-07-13T05:25:05;101053.25;;;18.95;72.07
77147;BME280;66121;52.584;9.694;2023-07-13T05:27:31;101039.13;;;19.22;71.74
77147;BME280;66121;52.584;9.694;2023-07-13T05:29:56;101043.31;;;18.94;71.58
77147;BME280;66121;52.584;9.694;2023-07-13T05:32:22;101040.78;;;19.00;72.62
77147;BME280;66121;52.584;9.694;2023-07-13T05:34:47;101046.06;;;19.14;71.45
77147;BME280;66121;52.584;9.694;2023-07-13T05:37:12;101048.41;;;18.99;71.53
77147;BME280;66121;52.584;9.694;2023-07-13T05:39:38;101049.56;;;19.38;70.63
77147;BME280;66121;52.584;9.694;2023-07-13T05:42:03;101050.53;;;19.11;70.62
77147;BME280;66121;52.584;9.694;2023-07-13T05:44:29;101054.44;;;19.34;70.17
77147;BME280;66121;52.584;9.694;2023-07-13T05:46:54;101056.88;;;19.83;69.12
77147;BME280;66121;52.584;9.694;2023-07-13T05:49:21;101049.00;;;19.78;69.68
77147;BME280;66121;52.584;9.694;2023-07-13T05:51:47;101047.75;;;20.28;67.91
77147;BME280;66121;52.584;9.694;2023-07-13T05:54:12;101055.75;;;20.58;65.76
77147;BME280;66121;52.584;9.694;2023-07-13T05:56:38;101065.22;;;20.64;66.44
77147;BME280;66121;52.584;9.694;2023-07-13T05:59:03;101065.16;;;20.51;65.92
77147;BME280;66121;52.584;9.694;2023-07-13T06:01:29;101050.09;;;20.29;65.44
77147;BME280;66121;52.584;9.694;2023-07-13T06:03:55;101055.31;;;19.99;66.06
77147;BME280;66121;52.584;9.694;2023-07-13T06:06:20;101069.72;;;19.97;66.41
77147;BME280;66121;52.584;9.694;2023-07-13T06:08:45;101071.66;;;20.00;65.23
77147;BME280;66121;52.584;9.694;2023-07-13T06:11:21;101078.06;;;20.17;65.71
77147;BME280;66121;52.584;9.694;2023-07-13T06:13:46;101065.97;;;20.04;63.73
77147;BME280;66121;52.584;9.694;2023-07-13T06:16:12;101064.41;;;19.86;63.80
77147;BME280;66121;52.584;9.694;2023-07-13T06:18:40;101067.63;;;20.17;64.98
77147;BME280;66121;52.584;9.694;2023-07-13T06:21:11;101065.09;;;20.07;64.10
77147;BME280;66121;52.584;9.694;2023-07-13T06:23:36;101073.41;;;20.10;64.33
77147;BME280;66121;52.584;9.694;2023-07-13T06:26:03;101081.91;;;20.07;63.63
77147;BME280;66121;52.584;9.694;2023-07-13T06:28:29;101083.28;;;20.15;63.80
77147;BME280;66121;52.584;9.694;2023-07-13T06:30:55;101076.59;;;20.28;65.19
77147;BME280;66121;52.584;9.694;2023-07-13T06:33:20;101068.97;;;20.29;64.79
77147;BME280;66121;52.584;9.694;2023-07-13T06:35:46;101065.63;;;20.34;64.73
77147;BME280;66121;52.584;9.694;2023-07-13T06:38:11;101081.59;;;20.49;63.10
77147;BME280;66121;52.584;9.694;2023-07-13T06:40:36;101084.31;;;20.53;62.80
77147;BME280;66121;52.584;9.694;2023-07-13T06:43:01;101080.31;;;20.22;62.78
77147;BME280;66121;52.584;9.694;2023-07-13T06:45:27;101090.19;;;20.59;63.46
77147;BME280;66121;52.584;9.694;2023-07-13T06:47:52;101078.03;;;20.49;63.63
77147;BME280;66121;52.584;9.694;2023-07-13T06:50:17;101097.56;;;20.52;62.58
77147;BME280;66121;52.584;9.694;2023-07-13T06:52:43;101095.69;;;20.91;63.33
77147;BME280;66121;52.584;9.694;2023-07-13T06:55:08;101089.44;;;20.71;61.48
77147;BME280;66121;52.584;9.694;2023-07-13T06:57:34;101102.22;;;20.72;61.39
77147;BME280;66121;52.584;9.694;2023-07-13T06:59:59;101092.22;;;20.99;62.32
77147;BME280;66121;52.584;9.694;2023-07-13T07:02:27;101095.53;;;20.82;62.63
77147;BME280;66121;52.584;9.694;2023-07-13T07:04:52;101102.94;;;20.31;61.21
77147;BME280;66121;52.584;9.694;2023-07-13T07:07:19;101109.47;;;20.57;62.28
77147;BME280;66121;52.584;9.694;2023-07-13T07:09:44;101100.94;;;20.76;62.68
77147;BME280;66121;52.584;9.694;2023-07-13T07:12:10;101098.94;;;20.61;61.23
77147;BME280;66121;52.584;9.694;2023-07-13T07:14:35;101102.44;;;20.65;63.04
77147;BME280;66121;52.584;9.694;2023-07-13T07:17:00;101110.03;;;21.09;62.00
77147;BME280;66121;52.584;9.694;2023-07-13T07:19:29;101104.91;;;21.33;61.15
77147;BME280;66121;52.584;9.694;2023-07-13T07:21:54;101116.25;;;21.42;59.36
77147;BME280;66121;52.584;9.694;2023-07-13T07:24:19;101117.72;;;21.05;60.71
77147;BME280;66121;52.584;9.694;2023-07-13T07:26:44;101111.59;;;21.10;61.41
77147;BME280;66121;52.584;9.694;2023-07-13T07:29:10;101115.13;;;20.69;62.31
77147;BME280;66121;52.584;9.694;2023-07-13T07:31:35;101117.03;;;20.72;62.36
77147;BME280;66121;52.584;9.694;2023-07-13T07:34:02;101115.72;;;20.77;63.78
77147;BME280;66121;52.584;9.694;2023-07-13T07:36:28;101109.91;;;20.55;63.39
77147;BME280;66121;52.584;9.694;2023-07-13T07:38:53;101123.03;;;21.69;59.49
77147;BME280;66121;52.584;9.694;2023-07-13T07:41:18;101132.28;;;21.95;60.49
77147;BME280;66121;52.584;9.694;2023-07-13T07:43:44;101119.59;;;21.91;59.89
77147;BME280;66121;52.584;9.694;2023-07-13T07:46:09;101115.56;;;22.51;59.28
77147;BME280;66121;52.584;9.694;2023-07-13T07:48:34;101112.84;;;22.13;58.59
77147;BME280;66121;52.584;9.694;2023-07-13T07:51:00;101122.19;;;21.85;60.95
77147;BME280;66121;52.584;9.694;2023-07-13T07:53:25;101108.41;;;21.49;60.38
77147;BME280;66121;52.584;9.694;2023-07-13T07:55:50;101128.44;;;21.51;60.35
77147;BME280;66121;52.584;9.694;2023-07-13T07:58:16;101122.53;;;21.21;61.49
77147;BME280;66121;52.584;9.694;2023-07-13T08:00:41;101125.75;;;21.06;63.94
77147;BME280;66121;52.584;9.694;2023-07-13T08:03:07;101123.34;;;21.34;62.90
77147;BME280;66121;52.584;9.694;2023-07-13T08:05:35;101129.13;;;21.68;62.58
77147;BME280;66121;52.584;9.694;2023-07-13T08:08:00;101123.38;;;21.46;59.79
77147;BME280;66121;52.584;9.694;2023-07-13T08:10:26;101124.22;;;21.18;61.79
77147;BME280;66121;52.584;9.694;2023-07-13T08:12:51;101118.69;;;21.14;62.34
77147;BME280;66121;52.584;9.694;2023-07-13T08:15:17;101117.94;;;20.98;61.97
77147;BME280;66121;52.584;9.694;2023-07-13T08:17:42;101115.94;;;21.52;62.91
77147;BME280;66121;52.584;9.694;2023-07-13T08:20:08;101119.69;;;22.00;59.21
77147;BME280;66121;52.584;9.694;2023-07-13T08:22:36;101119.94;;;21.93;59.67
77147;BME280;66121;52.584;9.694;2023-07-13T08:25:02;101128.91;;;22.00;60.67
77147;BME280;66121;52.584;9.694;2023-07-13T08:27:28;101134.63;;;22.22;61.19
77147;BME280;66121;52.584;9.694;2023-07-13T08:29:54;101126.75;;;21.79;59.98
77147;BME280;66121;52.584;9.694;2023-07-13T08:32:21;101124.69;;;21.42;61.21
77147;BME280;66121;52.584;9.694;2023-07-13T08:34:47;101136.56;;;21.04;63.29
77147;BME280;66121;52.584;9.694;2023-07-13T08:37:13;101134.53;;;22.60;62.69
77147;BME280;66121;52.584;9.694;2023-07-13T08:39:39;101131.06;;;22.56;59.88
77147;BME280;66121;52.584;9.694;2023-07-13T08:42:14;101135.78;;;22.93;57.02
77147;BME280;66121;52.584;9.694;2023-07-13T08:47:14;101124.16;;;21.59;60.03
77147;BME280;66121;52.584;9.694;2023-07-13T08:49:41;101134.78;;;22.87;59.92
77147;BME280;66121;52.584;9.694;2023-07-13T08:52:16;101135.19;;;23.41;55.93
77147;BME280;66121;52.584;9.694;2023-07-13T08:54:49;101125.53;;;23.73;57.19
77147;BME280;66121;52.584;9.694;2023-07-13T08:57:20;101128.34;;;23.73;55.58
77147;BME280;66121;52.584;9.694;2023-07-13T08:59:47;101114.19;;;23.33;56.09
77147;BME280;66121;52.584;9.694;2023-07-13T09:02:26;101128.06;;;22.84;58.43
77147;BME280;66121;52.584;9.694;2023-07-13T09:05:14;101122.78;;;22.27;56.73
77147;BME280;66121;52.584;9.694;2023-07-13T09:08:14;101127.72;;;22.48;59.36
77147;BME280;66121;52.584;9.694;2023-07-13T09:10:45;101128.50;;;23.79;57.77
77147;BME280;66121;52.584;9.694;2023-07-13T09:15:44;101133.94;;;24.71;55.75
77147;BME280;66121;52.584;9.694;2023-07-13T09:20:47;101119.84;;;23.64;52.61
77147;BME280;66121;52.584;9.694;2023-07-13T09:23:16;101114.00;;;23.89;56.33
77147;BME280;66121;52.584;9.694;2023-07-13T09:25:45;101123.13;;;24.02;55.63
77147;BME280;66121;52.584;9.694;2023-07-13T09:28:18;101125.84;;;23.75;52.65
77147;BME280;66121;52.584;9.694;2023-07-13T09:30:51;101125.75;;;23.88;54.50
77147;BME280;66121;52.584;9.694;2023-07-13T09:33:19;101133.38;;;23.78;54.09
77147;BME280;66121;52.584;9.694;2023-07-13T09:35:44;101133.72;;;24.20;51.90
77147;BME280;66121;52.584;9.694;2023-07-13T09:38:14;101124.94;;;24.27;51.86
77147;BME280;66121;52.584;9.694;2023-07-13T09:43:13;101121.13;;;25.66;50.98
77147;BME280;66121;52.584;9.694;2023-07-13T09:45:45;101120.53;;;25.62;48.50
77147;BME280;66121;52.584;9.694;2023-07-13T09:48:13;101124.53;;;24.65;49.44
77147;BME280;66121;52.584;9.694;2023-07-13T09:50:39;101136.44;;;24.69;50.37
77147;BME280;66121;52.584;9.694;2023-07-13T09:53:18;101125.19;;;24.11;50.44
77147;BME280;66121;52.584;9.694;2023-07-13T09:55:46;101139.78;;;24.94;50.51
77147;BME280;66121;52.584;9.694;2023-07-13T09:58:15;101130.34;;;25.85;48.93
77147;BME280;66121;52.584;9.694;2023-07-13T10:00:43;101117.00;;;25.76;49.55
77147;BME280;66121;52.584;9.694;2023-07-13T10:03:17;101124.78;;;25.48;47.79
77147;BME280;66121;52.584;9.694;2023-07-13T10:05:45;101129.06;;;23.95;50.08
77147;BME280;66121;52.584;9.694;2023-07-13T10:08:22;101141.41;;;22.93;52.38
77147;BME280;66121;52.584;9.694;2023-07-13T10:10:53;101125.56;;;22.86;53.84
77147;BME280;66121;52.584;9.694;2023-07-13T10:13:32;101137.81;;;22.92;54.45
77147;BME280;66121;52.584;9.694;2023-07-13T10:16:00;101132.19;;;23.57;53.92
77147;BME280;66121;52.584;9.694;2023-07-13T10:18:28;101117.25;;;22.83;52.67
77147;BME280;66121;52.584;9.694;2023-07-13T10:21:11;101125.16;;;24.69;52.55
77147;BME280;66121;52.584;9.694;2023-07-13T10:23:37;101133.53;;;25.69;50.28
77147;BME280;66121;52.584;9.694;2023-07-13T10:26:03;101129.09;;;24.98;47.33
77147;BME280;66121;52.584;9.694;2023-07-13T10:28:36;101137.41;;;25.20;49.32
77147;BME280;66121;52.584;9.694;2023-07-13T10:31:06;101140.94;;;25.99;48.02
77147;BME280;66121;52.584;9.694;2023-07-13T10:33:36;101133.41;;;27.00;48.26
77147;BME280;66121;52.584;9.694;2023-07-13T10:38:39;101130.16;;;25.28;47.97
77147;BME280;66121;52.584;9.694;2023-07-13T10:41:11;101132.69;;;24.05;48.67
77147;BME280;66121;52.584;9.694;2023-07-13T10:43:47;101136.72;;;23.33;50.57
77147;BME280;66121;52.584;9.694;2023-07-13T10:46:17;101126.28;;;23.21;51.06
77147;BME280;66121;52.584;9.694;2023-07-13T10:48:48;101132.81;;;24.50;51.41
77147;BME280;66121;52.584;9.694;2023-07-13T10:51:16;101140.81;;;24.61;45.57
77147;BME280;66121;52.584;9.694;2023-07-13T10:53:42;101131.84;;;25.62;46.46
77147;BME280;66121;52.584;9.694;2023-07-13T10:56:27;101147.75;;;24.96;46.72
77147;BME280;66121;52.584;9.694;2023-07-13T11:04:19;101149.44;;;24.57;48.66
77147;BME280;66121;52.584;9.694;2023-07-13T11:06:47;101143.78;;;24.39;47.52
77147;BME280;66121;52.584;9.694;2023-07-13T11:09:24;101156.03;;;24.45;46.88
77147;BME280;66121;52.584;9.694;2023-07-13T11:11:59;101146.09;;;23.61;48.78
77147;BME280;66121;52.584;9.694;2023-07-13T11:16:55;101150.06;;;23.42;49.51
77147;BME280;66121;52.584;9.694;2023-07-13T11:22:11;101136.44;;;24.69;48.04
77147;BME280;66121;52.584;9.694;2023-07-13T11:25:00;101143.34;;;25.13;45.91
77147;BME280;66121;52.584;9.694;2023-07-13T11:27:42;101147.91;;;25.11;46.97
77147;BME280;66121;52.584;9.694;2023-07-13T11:35:42;101150.59;;;23.80;47.40
77147;BME280;66121;52.584;9.694;2023-07-13T11:38:14;101151.78;;;23.18;48.57
77147;BME280;66121;52.584;9.694;2023-07-13T11:40:43;101146.84;;;24.14;46.50
77147;BME280;66121;52.584;9.694;2023-07-13T11:43:13;101137.84;;;25.19;46.85
77147;BME280;66121;52.584;9.694;2023-07-13T11:45:39;101133.13;;;24.52;47.41
77147;BME280;66121;52.584;9.694;2023-07-13T11:48:04;101122.63;;;23.95;46.84
77147;BME280;66121;52.584;9.694;2023-07-13T11:50:30;101139.13;;;24.81;48.85
77147;BME280;66121;52.584;9.694;2023-07-13T11:52:58;101129.88;;;24.63;46.50
77147;BME280;66121;52.584;9.694;2023-07-13T11:55:23;101130.56;;;24.18;47.41
77147;BME280;66121;52.584;9.694;2023-07-13T11:58:00;101132.53;;;23.68;48.43
77147;BME280;66121;52.584;9.694;2023-07-13T12:00:29;101142.59;;;23.26;49.75
77147;BME280;66121;52.584;9.694;2023-07-13T12:02:57;101143.97;;;23.22;49.84
77147;BME280;66121;52.584;9.694;2023-07-13T12:05:24;101137.31;;;23.28;47.97
77147;BME280;66121;52.584;9.694;2023-07-13T12:07:50;101147.16;;;23.11;50.78
77147;BME280;66121;52.584;9.694;2023-07-13T12:10:27;101147.97;;;22.90;49.72
77147;BME280;66121;52.584;9.694;2023-07-13T12:13:01;101146.59;;;22.94;51.16
77147;BME280;66121;52.584;9.694;2023-07-13T12:15:40;101144.09;;;22.96;51.47
77147;BME280;66121;52.584;9.694;2023-07-13T12:18:21;101138.66;;;22.80;50.69
77147;BME280;66121;52.584;9.694;2023-07-13T12:20:49;101130.22;;;22.80;51.35
77147;BME280;66121;52.584;9.694;2023-07-13T12:23:23;101132.97;;;22.93;50.63
77147;BME280;66121;52.584;9.694;2023-07-13T12:25:50;101133.72;;;22.72;50.69
77147;BME280;66121;52.584;9.694;2023-07-13T12:28:29;101151.22;;;22.41;52.28
77147;BME280;66121;52.584;9.694;2023-07-13T12:31:08;101146.59;;;22.48;50.54
77147;BME280;66121;52.584;9.694;2023-07-13T12:33:47;101148.53;;;23.41;50.09
77147;BME280;66121;52.584;9.694;2023-07-13T12:36:12;101143.53;;;24.82;45.14
77147;BME280;66121;52.584;9.694;2023-07-13T12:38:38;101134.06;;;25.49;44.82
77147;BME280;66121;52.584;9.694;2023-07-13T12:41:03;101133.38;;;25.72;42.82
77147;BME280;66121;52.584;9.694;2023-07-13T12:43:34;101135.16;;;26.26;43.39
77147;BME280;66121;52.584;9.694;2023-07-13T12:46:04;101141.84;;;26.38;45.38
77147;BME280;66121;52.584;9.694;2023-07-13T12:48:38;101121.97;;;25.39;42.72
77147;BME280;66121;52.584;9.694;2023-07-13T12:51:04;101122.16;;;24.63;43.82
77147;BME280;66121;52.584;9.694;2023-07-13T12:53:30;101118.00;;;23.70;46.06
77147;BME280;66121;52.584;9.694;2023-07-13T12:56:02;101140.00;;;23.10;46.48
77147;BME280;66121;52.584;9.694;2023-07-13T12:58:40;101170.44;;;22.68;57.04
77147;BME280;66121;52.584;9.694;2023-07-13T13:01:10;101215.78;;;21.12;65.01
77147;BME280;66121;52.584;9.694;2023-07-13T13:03:39;101238.34;;;20.28;73.78
77147;BME280;66121;52.584;9.694;2023-07-13T13:06:21;101266.41;;;19.88;74.34
77147;BME280;66121;52.584;9.694;2023-07-13T13:08:50;101287.72;;;18.50;77.50
77147;BME280;66121;52.584;9.694;2023-07-13T13:11:16;101301.31;;;18.18;82.48
77147;BME280;66121;52.584;9.694;2023-07-13T13:13:43;101305.47;;;18.07;83.65
77147;BME280;66121;52.584;9.694;2023-07-13T13:16:11;101300.06;;;18.23;85.84
77147;BME280;66121;52.584;9.694;2023-07-13T13:18:37;101305.66;;;18.23;81.00
77147;BME280;66121;52.584;9.694;2023-07-13T13:21:02;101310.25;;;18.36;87.83